Time;durP1;ratioP1;P1;durP2;ratioP2;P2;SDS_P1;SDS_P2;PMS_P1;PMS_P2;Temp;Humidity;BMP_temperature;BMP_pressure;BME280_temperature;BME280_humidity;BME280_pressure;Samples;Min_cycle;Max_cycle;Signal;HPM_P1;HPM_P2
2022/06/19 00:01:05;;;;;;;9.55;3.97;;;;;;;;;;5049127;28;20384;-88
2022/06/19 00:03:33;;;;;;;8.00;3.60;;;;;;;;;;5032852;28;20425;-89
2022/06/19 00:06:00;;;;;;;10.88;3.80;;;;;;;;;;5048120;28;20476;-89
2022/06/19 00:08:27;;;;;;;10.38;3.90;;;;;;;;;;5052862;28;20377;-89
2022/06/19 00:10:53;;;;;;;8.63;3.50;;;;;;;;;;5052850;28;20796;-89
2022/06/19 00:13:19;;;;;;;11.13;3.92;;;;;;;;;;5052436;28;20397;-89
2022/06/19 00:15:45;;;;;;;10.98;3.97;;;;;;;;;;5038624;28;20477;-90
2022/06/19 00:18:11;;;;;;;6.65;3.55;;;;;;;;;;5036666;28;20428;-87
2022/06/19 00:20:37;;;;;;;8.63;3.50;;;;;;;;;;5052848;28;20384;-90
2022/06/19 00:23:03;;;;;;;7.25;3.38;;;;;;;;;;5052998;28;20392;-90
2022/06/19 00:25:30;;;;;;;8.95;3.55;;;;;;;;;;5040857;28;20419;-89
2022/06/19 00:27:56;;;;;;;9.43;3.35;;;;;;;;;;5055464;28;20385;-88
2022/06/19 00:30:22;;;;;;;8.70;3.50;;;;;;;;;;5056528;28;20392;-89
2022/06/19 00:32:48;;;;;;;9.25;3.75;;;;;;;;;;5055411;28;20417;-90
2022/06/19 00:35:14;;;;;;;7.40;3.13;;;;;;;;;;5056434;28;20881;-87
2022/06/19 00:37:40;;;;;;;9.60;3.65;;;;;;;;;;5052067;28;20844;-88
2022/06/19 00:40:09;;;;;;;12.90;3.53;;;;;;;;;;5050573;28;20381;-89
2022/06/19 00:42:35;;;;;;;10.80;3.50;;;;;;;;;;5044748;28;20377;-88
2022/06/19 00:45:02;;;;;;;10.15;3.60;;;;;;;;;;5056060;28;20495;-90
2022/06/19 00:47:35;;;;;;;8.03;3.40;;;;;;;;;;5043233;28;20403;-89
2022/06/19 00:50:21;;;;;;;13.23;3.53;;;;;;;;;;5042891;28;20387;-89
2022/06/19 00:52:47;;;;;;;8.10;3.20;;;;;;;;;;5053759;28;20392;-89
2022/06/19 00:55:16;;;;;;;11.20;3.38;;;;;;;;;;5056685;28;20419;-88
2022/06/19 00:57:44;;;;;;;7.93;2.97;;;;;;;;;;5056142;28;20404;-90
2022/06/19 01:00:13;;;;;;;7.65;3.28;;;;;;;;;;5055026;28;20882;-90
2022/06/19 01:02:40;;;;;;;7.40;3.08;;;;;;;;;;5056540;28;20388;-87
2022/06/19 01:05:07;;;;;;;8.10;3.35;;;;;;;;;;5055940;28;20373;-90
2022/06/19 01:07:35;;;;;;;9.10;3.00;;;;;;;;;;5056507;28;20385;-89
2022/06/19 01:10:01;;;;;;;10.85;3.25;;;;;;;;;;5056566;28;20389;-89
2022/06/19 01:12:27;;;;;;;8.45;3.15;;;;;;;;;;5055744;28;20417;-88
2022/06/19 01:14:57;;;;;;;9.15;3.40;;;;;;;;;;5055760;28;20381;-89
2022/06/19 01:17:23;;;;;;;8.10;3.05;;;;;;;;;;5056116;28;20420;-90
2022/06/19 01:19:49;;;;;;;8.35;3.20;;;;;;;;;;5054767;28;20386;-90
2022/06/19 01:22:28;;;;;;;12.38;3.47;;;;;;;;;;5055901;28;20369;-88
2022/06/19 01:25:06;;;;;;;10.90;3.10;;;;;;;;;;5055220;28;20385;-90
2022/06/19 01:30:19;;;;;;;7.97;2.75;;;;;;;;;;5055440;28;20376;-89
2022/06/19 01:32:46;;;;;;;10.23;3.17;;;;;;;;;;5055219;28;20381;-89
2022/06/19 01:35:13;;;;;;;8.50;2.90;;;;;;;;;;5055167;28;20377;-90
2022/06/19 01:37:40;;;;;;;7.28;3.03;;;;;;;;;;5047887;28;20769;-89
2022/06/19 01:40:07;;;;;;;8.50;3.03;;;;;;;;;;5028925;28;20381;-89
2022/06/19 01:42:33;;;;;;;8.45;3.40;;;;;;;;;;5032900;28;20904;-90
2022/06/19 01:45:00;;;;;;;6.83;3.17;;;;;;;;;;5034195;28;20387;-88
2022/06/19 01:47:29;;;;;;;9.07;3.13;;;;;;;;;;5037412;28;20383;-90
2022/06/19 01:49:55;;;;;;;8.57;3.10;;;;;;;;;;5045269;28;20386;-90
2022/06/19 01:52:23;;;;;;;7.13;3.13;;;;;;;;;;5052958;28;20386;-88
2022/06/19 01:54:57;;;;;;;8.15;2.83;;;;;;;;;;5036694;28;20402;-89
2022/06/19 01:57:23;;;;;;;8.38;3.15;;;;;;;;;;5032250;28;20541;-89
2022/06/19 01:59:50;;;;;;;7.68;2.70;;;;;;;;;;5033692;28;20458;-89
2022/06/19 02:02:16;;;;;;;8.93;3.20;;;;;;;;;;5052240;28;20460;-89
2022/06/19 02:04:43;;;;;;;10.57;3.63;;;;;;;;;;5052070;28;20404;-89
2022/06/19 02:07:12;;;;;;;10.07;3.00;;;;;;;;;;5053766;28;20385;-89
2022/06/19 02:09:38;;;;;;;7.22;3.10;;;;;;;;;;5055265;28;20381;-88
2022/06/19 02:12:05;;;;;;;10.65;3.03;;;;;;;;;;5055131;28;20485;-91
2022/06/19 02:14:32;;;;;;;9.90;3.33;;;;;;;;;;5054499;28;20378;-89
2022/06/19 02:17:00;;;;;;;8.32;2.90;;;;;;;;;;5046890;28;20784;-88
2022/06/19 02:19:27;;;;;;;7.15;2.78;;;;;;;;;;5032733;28;20387;-90
2022/06/19 02:21:54;;;;;;;7.55;2.80;;;;;;;;;;5026524;28;20420;-89
2022/06/19 02:24:23;;;;;;;8.82;3.15;;;;;;;;;;5055465;28;20719;-89
2022/06/19 02:26:50;;;;;;;6.68;2.67;;;;;;;;;;5050702;28;20466;-89
2022/06/19 02:29:17;;;;;;;10.95;2.90;;;;;;;;;;5024650;28;20389;-88
2022/06/19 02:31:44;;;;;;;7.15;2.80;;;;;;;;;;5048012;28;20488;-90
2022/06/19 02:34:17;;;;;;;9.82;3.30;;;;;;;;;;5054894;28;20389;-89
2022/06/19 02:36:49;;;;;;;7.32;3.20;;;;;;;;;;5054365;28;20401;-88
2022/06/19 02:39:38;;;;;;;7.68;2.80;;;;;;;;;;5045842;28;20897;-88
2022/06/19 02:42:04;;;;;;;7.10;3.13;;;;;;;;;;5053113;28;20409;-89
2022/06/19 02:44:31;;;;;;;6.38;3.00;;;;;;;;;;5053500;28;20416;-90
2022/06/19 02:46:57;;;;;;;7.23;2.70;;;;;;;;;;5054484;28;20408;-88
2022/06/19 02:49:23;;;;;;;8.57;3.00;;;;;;;;;;5054715;28;20863;-89
2022/06/19 02:51:49;;;;;;;7.32;3.30;;;;;;;;;;5054256;28;20378;-90
2022/06/19 02:54:15;;;;;;;7.72;3.28;;;;;;;;;;5039984;28;20415;-89
2022/06/19 02:56:41;;;;;;;6.25;2.80;;;;;;;;;;5052610;28;20409;-89
2022/06/19 02:59:07;;;;;;;9.02;3.20;;;;;;;;;;5053710;28;20389;-90
2022/06/19 03:01:33;;;;;;;7.15;3.22;;;;;;;;;;5053947;28;20794;-89
2022/06/19 03:03:59;;;;;;;9.40;2.95;;;;;;;;;;5053847;28;20413;-89
2022/06/19 03:06:25;;;;;;;7.57;3.40;;;;;;;;;;5053624;28;20393;-88
2022/06/19 03:08:51;;;;;;;7.80;3.03;;;;;;;;;;5053806;28;20377;-90
2022/06/19 03:11:17;;;;;;;8.25;3.45;;;;;;;;;;5053608;28;20396;-89
2022/06/19 03:13:43;;;;;;;7.65;2.58;;;;;;;;;;5044713;28;20884;-90
2022/06/19 03:16:10;;;;;;;8.63;2.83;;;;;;;;;;5034139;28;20431;-89
2022/06/19 03:18:38;;;;;;;8.88;3.10;;;;;;;;;;5053585;28;20400;-89
2022/06/19 03:21:05;;;;;;;8.60;3.17;;;;;;;;;;5052302;28;20378;-89
2022/06/19 03:23:31;;;;;;;8.57;3.20;;;;;;;;;;5052579;28;20408;-88
2022/06/19 03:25:57;;;;;;;7.90;3.10;;;;;;;;;;5053710;28;20461;-87
2022/06/19 03:28:23;;;;;;;6.87;3.00;;;;;;;;;;5053690;28;20389;-89
2022/06/19 03:30:53;;;;;;;7.60;3.13;;;;;;;;;;5053663;28;20890;-88
2022/06/19 03:33:19;;;;;;;8.77;3.13;;;;;;;;;;5033313;28;20734;-90
2022/06/19 03:35:46;;;;;;;7.22;3.28;;;;;;;;;;5040499;28;20408;-89
2022/06/19 03:38:12;;;;;;;6.27;3.17;;;;;;;;;;5043149;28;20375;-90
2022/06/19 03:40:38;;;;;;;6.68;2.90;;;;;;;;;;5052211;28;20965;-89
2022/06/19 03:43:04;;;;;;;7.53;3.08;;;;;;;;;;5052970;28;20385;-89
2022/06/19 03:45:30;;;;;;;9.18;3.38;;;;;;;;;;5038433;28;20484;-90
2022/06/19 03:47:56;;;;;;;8.07;2.90;;;;;;;;;;5053143;28;20386;-88
2022/06/19 03:50:22;;;;;;;7.70;3.00;;;;;;;;;;5031806;28;20385;-91
2022/06/19 03:52:48;;;;;;;8.32;3.22;;;;;;;;;;5052855;28;20381;-89
2022/06/19 03:55:14;;;;;;;6.57;2.63;;;;;;;;;;5034608;28;20400;-90
2022/06/19 03:57:40;;;;;;;7.43;3.13;;;;;;;;;;5049488;28;20397;-89
2022/06/19 04:00:07;;;;;;;7.90;2.53;;;;;;;;;;5053043;28;20382;-90
2022/06/19 04:02:33;;;;;;;8.63;3.10;;;;;;;;;;5046516;28;20375;-89
2022/06/19 04:04:59;;;;;;;6.78;2.70;;;;;;;;;;5039752;28;20405;-90
2022/06/19 04:07:25;;;;;;;7.78;3.20;;;;;;;;;;5052847;28;20416;-90
2022/06/19 04:09:51;;;;;;;7.22;3.30;;;;;;;;;;5045129;28;20453;-90
2022/06/19 04:12:17;;;;;;;7.55;3.35;;;;;;;;;;5053201;28;20397;-89
2022/06/19 04:14:43;;;;;;;7.13;3.17;;;;;;;;;;5051390;28;20783;-89
2022/06/19 04:17:09;;;;;;;8.70;3.37;;;;;;;;;;5052699;28;20412;-90
2022/06/19 04:19:35;;;;;;;8.82;3.20;;;;;;;;;;5038617;28;20383;-89
2022/06/19 04:22:01;;;;;;;10.23;3.30;;;;;;;;;;5053016;28;20384;-88
2022/06/19 04:24:27;;;;;;;7.30;3.05;;;;;;;;;;5052811;28;20433;-88
2022/06/19 04:26:53;;;;;;;9.87;3.10;;;;;;;;;;5052836;28;20870;-91
2022/06/19 04:29:20;;;;;;;11.27;3.58;;;;;;;;;;5036561;28;20419;-88
2022/06/19 04:31:46;;;;;;;8.27;3.33;;;;;;;;;;5050297;28;20384;-89
2022/06/19 04:34:12;;;;;;;6.47;3.03;;;;;;;;;;5051937;28;20378;-89
2022/06/19 04:36:38;;;;;;;6.20;3.15;;;;;;;;;;5052448;28;20447;-89
2022/06/19 04:39:05;;;;;;;9.25;3.28;;;;;;;;;;5043649;28;20478;-90
2022/06/19 04:41:38;;;;;;;7.05;3.03;;;;;;;;;;5053003;28;20401;-91
2022/06/19 04:44:06;;;;;;;9.15;3.53;;;;;;;;;;5025976;28;20374;-91
2022/06/19 04:46:32;;;;;;;9.52;3.60;;;;;;;;;;5039736;28;20425;-91
2022/06/19 04:48:58;;;;;;;8.85;3.28;;;;;;;;;;5050154;28;20381;-91
2022/06/19 04:51:24;;;;;;;10.13;3.22;;;;;;;;;;5052497;28;20393;-90
2022/06/19 04:53:50;;;;;;;10.15;3.42;;;;;;;;;;5052268;28;20445;-90
2022/06/19 04:56:18;;;;;;;5.57;2.67;;;;;;;;;;5047199;28;20406;-90
2022/06/19 04:58:44;;;;;;;9.00;3.37;;;;;;;;;;5044160;28;20416;-90
2022/06/19 05:01:13;;;;;;;8.85;3.47;;;;;;;;;;5052315;28;20377;-91
2022/06/19 05:03:39;;;;;;;7.72;2.92;;;;;;;;;;5050857;28;20850;-89
2022/06/19 05:06:05;;;;;;;6.68;3.00;;;;;;;;;;5051968;28;20393;-91
2022/06/19 05:08:31;;;;;;;8.93;2.97;;;;;;;;;;5053873;28;20408;-90
2022/06/19 05:10:57;;;;;;;5.95;3.05;;;;;;;;;;5055745;28;20389;-91
2022/06/19 05:13:25;;;;;;;8.20;3.30;;;;;;;;;;5054225;28;20409;-89
2022/06/19 05:16:01;;;;;;;10.10;3.00;;;;;;;;;;5055592;28;20493;-90
2022/06/19 05:18:27;;;;;;;6.95;3.20;;;;;;;;;;5054095;28;20929;-91
2022/06/19 05:20:56;;;;;;;7.65;3.05;;;;;;;;;;5055842;28;20393;-89
2022/06/19 05:23:22;;;;;;;8.52;3.05;;;;;;;;;;5051084;28;20482;-90
2022/06/19 05:25:49;;;;;;;8.00;3.10;;;;;;;;;;5033389;28;20391;-89
2022/06/19 05:28:14;;;;;;;8.23;2.80;;;;;;;;;;5038995;28;20879;-89
2022/06/19 05:30:41;;;;;;;9.73;3.40;;;;;;;;;;5052197;28;20405;-89
2022/06/19 05:33:06;;;;;;;10.55;3.30;;;;;;;;;;5021890;28;20385;-89
2022/06/19 05:35:32;;;;;;;9.25;3.10;;;;;;;;;;5055724;28;20409;-90
2022/06/19 05:37:58;;;;;;;7.70;2.95;;;;;;;;;;5047274;28;20889;-88
2022/06/19 05:40:24;;;;;;;7.57;3.13;;;;;;;;;;5053032;28;20389;-88
2022/06/19 05:42:50;;;;;;;9.40;2.90;;;;;;;;;;5043013;28;20883;-89
2022/06/19 05:45:17;;;;;;;10.35;3.60;;;;;;;;;;5037095;28;20489;-89
2022/06/19 05:47:43;;;;;;;10.25;3.75;;;;;;;;;;5055503;28;20472;-89
2022/06/19 05:50:10;;;;;;;11.80;3.55;;;;;;;;;;5055347;28;20381;-89
2022/06/19 05:52:36;;;;;;;10.63;3.50;;;;;;;;;;5055236;28;20859;-91
2022/06/19 05:55:02;;;;;;;12.77;3.63;;;;;;;;;;5054694;28;20400;-85
2022/06/19 05:57:28;;;;;;;8.80;3.40;;;;;;;;;;5054680;28;20859;-87
2022/06/19 05:59:54;;;;;;;10.80;3.70;;;;;;;;;;5048392;28;20893;-87
2022/06/19 06:02:22;;;;;;;10.52;3.35;;;;;;;;;;5034663;28;20745;-87
2022/06/19 06:04:48;;;;;;;9.30;3.10;;;;;;;;;;5038792;28;20465;-87
2022/06/19 06:07:14;;;;;;;10.07;3.30;;;;;;;;;;5054632;28;20476;-86
2022/06/19 06:09:40;;;;;;;10.07;3.65;;;;;;;;;;5054558;28;20436;-86
2022/06/19 06:12:07;;;;;;;9.68;4.30;;;;;;;;;;5054908;28;20393;-87
2022/06/19 06:14:33;;;;;;;11.77;4.35;;;;;;;;;;5038464;28;20379;-87
2022/06/19 06:16:59;;;;;;;10.97;4.10;;;;;;;;;;5023636;28;20514;-87
2022/06/19 06:19:25;;;;;;;11.80;4.90;;;;;;;;;;5027363;28;20454;-87
2022/06/19 06:21:51;;;;;;;12.38;4.65;;;;;;;;;;5034846;28;20386;-87
2022/06/19 06:24:17;;;;;;;13.20;4.38;;;;;;;;;;5034516;28;20383;-88
2022/06/19 06:26:43;;;;;;;13.30;4.28;;;;;;;;;;5033621;28;20417;-88
2022/06/19 06:29:10;;;;;;;10.23;3.95;;;;;;;;;;5035718;28;20379;-87
2022/06/19 06:31:36;;;;;;;12.43;4.63;;;;;;;;;;5036299;28;20433;-87
2022/06/19 06:34:03;;;;;;;10.65;4.25;;;;;;;;;;5035508;28;20405;-87
2022/06/19 06:36:29;;;;;;;11.20;4.18;;;;;;;;;;5034879;28;20399;-87
2022/06/19 06:38:56;;;;;;;10.00;4.20;;;;;;;;;;5040672;28;20431;-87
2022/06/19 06:41:22;;;;;;;11.60;4.40;;;;;;;;;;5053959;28;20381;-88
2022/06/19 06:43:48;;;;;;;11.68;4.57;;;;;;;;;;5048064;28;20387;-87
2022/06/19 06:46:18;;;;;;;13.90;4.35;;;;;;;;;;5034951;28;20389;-87
2022/06/19 06:48:44;;;;;;;8.73;4.10;;;;;;;;;;5053583;28;20708;-88
2022/06/19 06:51:15;;;;;;;11.45;3.97;;;;;;;;;;5048745;28;20380;-86
2022/06/19 06:53:41;;;;;;;9.70;3.90;;;;;;;;;;5046537;28;20377;-87
2022/06/19 06:56:08;;;;;;;8.45;4.00;;;;;;;;;;5052444;28;20937;-88
2022/06/19 06:58:34;;;;;;;11.32;3.88;;;;;;;;;;5052282;28;20382;-87
2022/06/19 07:01:10;;;;;;;8.33;3.87;;;;;;;;;;5049688;28;20960;-88
2022/06/19 07:03:36;;;;;;;13.05;4.47;;;;;;;;;;5046848;28;20729;-88
2022/06/19 07:06:03;;;;;;;8.70;3.78;;;;;;;;;;5049120;28;20386;-86
2022/06/19 07:08:29;;;;;;;9.18;3.70;;;;;;;;;;5039804;28;20437;-87
2022/06/19 07:10:55;;;;;;;11.47;4.07;;;;;;;;;;5030732;28;20391;-88
2022/06/19 07:13:21;;;;;;;11.27;4.13;;;;;;;;;;5027470;28;20412;-87
2022/06/19 07:15:47;;;;;;;10.88;4.13;;;;;;;;;;5040255;28;20425;-87
2022/06/19 07:18:13;;;;;;;8.82;3.67;;;;;;;;;;5051081;28;20374;-87
2022/06/19 07:20:39;;;;;;;11.77;4.40;;;;;;;;;;5053157;28;20734;-88
2022/06/19 07:23:05;;;;;;;13.90;4.40;;;;;;;;;;5051507;28;20374;-86
2022/06/19 07:25:31;;;;;;;10.88;4.10;;;;;;;;;;5041515;28;20889;-87
2022/06/19 07:27:59;;;;;;;10.68;4.10;;;;;;;;;;5039405;28;20391;-88
2022/06/19 07:30:26;;;;;;;14.20;4.45;;;;;;;;;;5039120;28;20431;-89
2022/06/19 07:32:52;;;;;;;11.73;4.68;;;;;;;;;;5052910;28;20410;-88
2022/06/19 07:35:18;;;;;;;15.95;4.55;;;;;;;;;;5052548;28;20385;-86
2022/06/19 07:37:44;;;;;;;11.73;4.27;;;;;;;;;;5047484;28;20884;-86
2022/06/19 07:40:13;;;;;;;11.50;4.27;;;;;;;;;;5049718;28;20385;-87
2022/06/19 07:42:39;;;;;;;11.02;3.80;;;;;;;;;;5045372;28;20430;-87
2022/06/19 07:45:05;;;;;;;9.75;4.13;;;;;;;;;;5041328;28;20393;-86
2022/06/19 07:50:17;;;;;;;11.57;4.90;;;;;;;;;;5053273;28;20392;-86
2022/06/19 07:52:45;;;;;;;10.80;4.00;;;;;;;;;;5043103;28;20385;-86
2022/06/19 07:55:12;;;;;;;8.95;4.32;;;;;;;;;;5034532;28;20460;-86
2022/06/19 07:57:39;;;;;;;7.50;4.40;;;;;;;;;;5026073;28;20450;-86
2022/06/19 08:00:06;;;;;;;13.00;4.50;;;;;;;;;;5041486;28;20404;-87
2022/06/19 08:02:32;;;;;;;12.65;4.85;;;;;;;;;;5053067;28;20374;-86
2022/06/19 08:04:58;;;;;;;14.23;4.60;;;;;;;;;;5052413;28;20473;-87
2022/06/19 08:07:24;;;;;;;10.48;4.50;;;;;;;;;;5053341;28;20381;-87
2022/06/19 08:09:51;;;;;;;15.18;4.82;;;;;;;;;;5033610;28;20379;-88
2022/06/19 08:12:17;;;;;;;7.97;4.75;;;;;;;;;;5044002;28;20923;-86
2022/06/19 08:14:43;;;;;;;12.27;5.10;;;;;;;;;;5038768;28;20381;-87
2022/06/19 08:17:09;;;;;;;11.95;4.78;;;;;;;;;;5052830;28;20412;-89
2022/06/19 08:19:35;;;;;;;8.77;5.10;;;;;;;;;;5032738;28;20893;-87
2022/06/19 08:22:01;;;;;;;11.75;5.32;;;;;;;;;;5039841;28;20377;-87
2022/06/19 08:24:27;;;;;;;9.63;4.95;;;;;;;;;;5042222;28;20371;-88
2022/06/19 08:27:26;;;;;;;12.32;4.90;;;;;;;;;;5049197;28;20389;-88
2022/06/19 08:29:46;;;;;;;11.73;5.23;;;;;;;;;;5045447;28;20374;-86
2022/06/19 08:32:12;;;;;;;10.50;4.70;;;;;;;;;;5045815;28;20383;-85
2022/06/19 08:34:38;;;;;;;10.47;4.80;;;;;;;;;;5039980;28;21071;-86
2022/06/19 08:37:06;;;;;;;10.03;4.77;;;;;;;;;;5034953;28;20772;-86
2022/06/19 08:39:32;;;;;;;8.75;5.20;;;;;;;;;;5042053;28;20751;-86
2022/06/19 08:42:24;;;;;;;9.70;5.15;;;;;;;;;;5051346;28;20381;-85
2022/06/19 08:44:50;;;;;;;11.45;5.20;;;;;;;;;;5054205;28;20385;-85
2022/06/19 08:47:25;;;;;;;10.13;5.50;;;;;;;;;;5035955;28;20730;-85
2022/06/19 08:50:00;;;;;;;9.07;4.80;;;;;;;;;;5033641;28;20432;-86
2022/06/19 08:52:44;;;;;;;10.65;5.68;;;;;;;;;;5035404;28;20478;-86
2022/06/19 08:55:16;;;;;;;12.25;4.95;;;;;;;;;;5036035;28;20407;-87
2022/06/19 08:57:58;;;;;;;14.95;5.20;;;;;;;;;;5037410;28;20437;-85
2022/06/19 09:00:28;;;;;;;8.65;5.10;;;;;;;;;;5034405;28;20384;-89
2022/06/19 09:02:57;;;;;;;10.65;5.43;;;;;;;;;;5030879;28;20878;-85
2022/06/19 09:05:36;;;;;;;8.73;5.20;;;;;;;;;;5055606;28;20385;-85
2022/06/19 09:08:21;;;;;;;8.63;5.32;;;;;;;;;;5056056;28;20390;-87
2022/06/19 09:10:59;;;;;;;8.02;5.32;;;;;;;;;;5055510;28;20456;-88
2022/06/19 09:13:53;;;;;;;10.77;5.72;;;;;;;;;;5056238;28;20428;-87
2022/06/19 09:16:25;;;;;;;9.95;5.70;;;;;;;;;;5055801;28;20428;-89
2022/06/19 09:18:51;;;;;;;10.40;5.97;;;;;;;;;;5046298;28;20374;-87
2022/06/19 09:21:26;;;;;;;7.88;5.47;;;;;;;;;;5043875;28;20391;-86
2022/06/19 09:24:17;;;;;;;8.15;5.75;;;;;;;;;;5042920;28;20373;-86
2022/06/19 09:26:45;;;;;;;11.60;6.00;;;;;;;;;;5055511;28;20473;-88
2022/06/19 09:29:20;;;;;;;9.25;5.97;;;;;;;;;;5054060;28;20394;-84
2022/06/19 09:32:13;;;;;;;7.30;5.38;;;;;;;;;;5055055;28;20389;-85
2022/06/19 09:34:42;;;;;;;9.33;5.73;;;;;;;;;;5054072;28;20401;-86
2022/06/19 09:37:08;;;;;;;8.68;6.00;;;;;;;;;;5054452;28;20420;-84
2022/06/19 09:39:48;;;;;;;8.63;6.05;;;;;;;;;;5041943;28;20381;-85
2022/06/19 09:42:14;;;;;;;8.43;5.67;;;;;;;;;;5054818;28;20377;-86
2022/06/19 09:44:44;;;;;;;9.75;5.40;;;;;;;;;;5047027;28;20393;-84
2022/06/19 09:47:13;;;;;;;7.32;5.57;;;;;;;;;;5032821;28;20478;-86
2022/06/19 09:49:50;;;;;;;8.45;6.32;;;;;;;;;;5045570;28;20386;-86
2022/06/19 09:52:19;;;;;;;9.05;6.15;;;;;;;;;;5054699;28;20507;-86
2022/06/19 09:54:51;;;;;;;9.32;6.00;;;;;;;;;;5047738;28;20431;-84
2022/06/19 09:57:35;;;;;;;7.68;5.80;;;;;;;;;;5046072;28;20452;-87
2022/06/19 10:00:11;;;;;;;9.45;6.05;;;;;;;;;;5042936;28;20412;-85
2022/06/19 10:02:52;;;;;;;8.57;6.03;;;;;;;;;;5050249;28;20464;-85
2022/06/19 10:05:31;;;;;;;10.30;5.93;;;;;;;;;;5054318;28;20468;-87
2022/06/19 10:08:02;;;;;;;11.27;6.03;;;;;;;;;;5054090;28;20377;-85
2022/06/19 10:10:47;;;;;;;13.98;6.07;;;;;;;;;;5054268;28;20388;-85
2022/06/19 10:13:21;;;;;;;9.82;5.55;;;;;;;;;;5054262;28;20443;-86
2022/06/19 10:15:47;;;;;;;10.45;6.03;;;;;;;;;;5037864;28;20405;-86
2022/06/19 10:18:16;;;;;;;10.93;5.72;;;;;;;;;;5039270;28;20472;-85
2022/06/19 10:21:01;;;;;;;10.77;6.13;;;;;;;;;;5053757;28;20374;-84
2022/06/19 10:23:40;;;;;;;8.63;5.75;;;;;;;;;;5054248;28;20877;-86
2022/06/19 10:26:09;;;;;;;9.80;6.20;;;;;;;;;;5054028;28;20416;-84
2022/06/19 10:28:40;;;;;;;8.32;5.50;;;;;;;;;;5053680;28;20386;-87
2022/06/19 10:31:33;;;;;;;7.32;5.70;;;;;;;;;;5053731;28;20873;-83
2022/06/19 10:34:17;;;;;;;10.47;5.70;;;;;;;;;;5049143;28;20399;-84
2022/06/19 10:36:52;;;;;;;9.43;5.78;;;;;;;;;;5035371;28;20457;-83
2022/06/19 10:39:18;;;;;;;9.30;6.00;;;;;;;;;;5045004;28;20377;-83
2022/06/19 10:42:05;;;;;;;10.88;5.20;;;;;;;;;;5053732;28;20427;-84
2022/06/19 10:44:50;;;;;;;9.20;5.47;;;;;;;;;;5055030;28;20465;-85
2022/06/19 10:47:19;;;;;;;9.95;5.38;;;;;;;;;;5027884;28;20392;-84
2022/06/19 10:50:12;;;;;;;9.32;5.43;;;;;;;;;;5025576;28;20408;-84
2022/06/19 10:52:38;;;;;;;7.10;5.33;;;;;;;;;;5023506;28;20939;-83
2022/06/19 10:55:23;;;;;;;10.25;5.32;;;;;;;;;;5031093;28;20462;-83
2022/06/19 10:57:49;;;;;;;8.80;5.93;;;;;;;;;;5023501;28;20417;-85
2022/06/19 11:00:15;;;;;;;9.60;5.45;;;;;;;;;;5031066;28;20394;-84
2022/06/19 11:05:39;;;;;;;8.63;5.28;;;;;;;;;;5043000;28;20421;-84
2022/06/19 11:08:05;;;;;;;8.03;5.17;;;;;;;;;;5019137;28;20396;-85
2022/06/19 11:10:45;;;;;;;7.55;5.47;;;;;;;;;;5041454;28;20899;-85
2022/06/19 11:13:12;;;;;;;8.43;5.82;;;;;;;;;;5024110;28;20413;-84
2022/06/19 11:15:47;;;;;;;7.88;5.22;;;;;;;;;;5040937;28;20382;-84
2022/06/19 11:18:16;;;;;;;8.32;5.32;;;;;;;;;;5034199;28;20390;-83
2022/06/19 11:21:02;;;;;;;11.98;5.40;;;;;;;;;;5032177;28;20392;-84
2022/06/19 11:23:29;;;;;;;5.60;4.90;;;;;;;;;;5024927;28;20409;-86
2022/06/19 11:26:16;;;;;;;6.85;4.88;;;;;;;;;;5019186;28;20463;-85
2022/06/19 11:28:49;;;;;;;9.68;5.00;;;;;;;;;;5026818;28;20395;-84
2022/06/19 11:31:19;;;;;;;9.25;4.95;;;;;;;;;;5023972;28;20890;-85
2022/06/19 11:33:47;;;;;;;6.70;4.43;;;;;;;;;;5025122;28;20431;-85
2022/06/19 11:36:29;;;;;;;7.68;4.60;;;;;;;;;;5018771;28;20539;-85
2022/06/19 11:38:55;;;;;;;7.60;4.95;;;;;;;;;;5012951;28;20400;-85
2022/06/19 11:41:21;;;;;;;8.93;4.95;;;;;;;;;;5017407;28;20407;-85
2022/06/19 11:43:59;;;;;;;11.18;5.13;;;;;;;;;;5018979;28;20750;-84
2022/06/19 11:46:26;;;;;;;8.77;4.68;;;;;;;;;;5023361;28;20920;-85
2022/06/19 11:48:52;;;;;;;8.57;5.07;;;;;;;;;;5018026;28;20819;-84
2022/06/19 11:51:20;;;;;;;9.57;4.90;;;;;;;;;;5022336;28;20476;-84
2022/06/19 11:53:52;;;;;;;10.05;4.80;;;;;;;;;;5028081;28;20412;-84
2022/06/19 11:56:21;;;;;;;7.22;4.47;;;;;;;;;;5017626;28;20419;-84
2022/06/19 11:58:52;;;;;;;9.68;4.80;;;;;;;;;;5015063;28;20408;-87
2022/06/19 12:01:19;;;;;;;7.85;5.20;;;;;;;;;;5042827;28;20395;-87
2022/06/19 12:03:47;;;;;;;9.25;4.97;;;;;;;;;;5032880;28;20379;-86
2022/06/19 12:06:15;;;;;;;9.82;5.07;;;;;;;;;;5051728;28;20378;-86
2022/06/19 12:08:51;;;;;;;9.05;4.80;;;;;;;;;;5050220;28;20373;-87
2022/06/19 12:11:32;;;;;;;11.57;4.90;;;;;;;;;;5035561;28;20383;-85
2022/06/19 12:13:58;;;;;;;8.82;4.82;;;;;;;;;;5052464;28;20396;-86
2022/06/19 12:16:24;;;;;;;7.22;4.47;;;;;;;;;;5053053;28;20412;-88
2022/06/19 12:18:51;;;;;;;9.18;4.55;;;;;;;;;;5039063;28;20418;-86
2022/06/19 12:21:22;;;;;;;10.23;4.93;;;;;;;;;;5048285;28;20369;-84
2022/06/19 12:23:54;;;;;;;8.40;4.80;;;;;;;;;;5056626;28;20388;-87
2022/06/19 12:26:24;;;;;;;9.40;4.88;;;;;;;;;;5048980;28;20383;-85
2022/06/19 12:29:22;;;;;;;8.88;4.65;;;;;;;;;;5036426;28;20413;-85
2022/06/19 12:31:48;;;;;;;8.32;4.72;;;;;;;;;;5052361;28;20386;-84
2022/06/19 12:34:26;;;;;;;11.43;4.80;;;;;;;;;;5056696;28;20458;-85
2022/06/19 12:36:52;;;;;;;14.70;5.05;;;;;;;;;;5056196;28;20412;-84
2022/06/19 12:39:21;;;;;;;8.45;5.05;;;;;;;;;;5055964;28;20389;-84
2022/06/19 12:42:09;;;;;;;10.43;4.82;;;;;;;;;;5056297;28;20381;-83
2022/06/19 12:44:45;;;;;;;12.00;4.88;;;;;;;;;;5056364;28;20375;-84
2022/06/19 12:47:30;;;;;;;8.13;4.60;;;;;;;;;;5054504;28;20774;-86
2022/06/19 12:49:56;;;;;;;9.65;4.50;;;;;;;;;;5046633;28;20386;-85
2022/06/19 12:52:22;;;;;;;12.00;4.88;;;;;;;;;;5036506;28;20407;-85
2022/06/19 12:55:03;;;;;;;11.27;4.83;;;;;;;;;;5034715;28;20391;-83
2022/06/19 12:57:38;;;;;;;11.80;4.90;;;;;;;;;;5040395;28;20440;-86
2022/06/19 13:00:19;;;;;;;8.85;4.53;;;;;;;;;;5036208;28;20376;-85
2022/06/19 13:03:04;;;;;;;11.13;4.70;;;;;;;;;;5042439;28;20460;-84
2022/06/19 13:05:36;;;;;;;8.32;4.47;;;;;;;;;;5054575;28;20708;-87
2022/06/19 13:08:12;;;;;;;11.93;4.47;;;;;;;;;;5055567;28;20377;-85
2022/06/19 13:10:50;;;;;;;12.88;5.10;;;;;;;;;;5055685;28;20400;-85
2022/06/19 13:13:23;;;;;;;9.77;4.70;;;;;;;;;;5055386;28;20393;-83
2022/06/19 13:16:00;;;;;;;10.65;4.28;;;;;;;;;;5052845;28;20420;-83
2022/06/19 13:18:26;;;;;;;14.75;4.93;;;;;;;;;;5052969;28;20405;-85
2022/06/19 13:20:57;;;;;;;13.93;4.80;;;;;;;;;;5047355;28;20763;-84
2022/06/19 13:23:23;;;;;;;10.52;5.22;;;;;;;;;;5055560;28;20370;-84
2022/06/19 13:27:10;;;;;;;9.50;4.70;;;;;;;;;;5055492;28;20382;-85
2022/06/19 13:29:06;;;;;;;13.25;5.05;;;;;;;;;;5044930;28;20923;-85
2022/06/19 13:31:35;;;;;;;12.70;5.10;;;;;;;;;;5041213;28;20744;-84
2022/06/19 13:34:07;;;;;;;11.52;5.00;;;;;;;;;;5038833;28;20390;-83
2022/06/19 13:36:46;;;;;;;11.73;5.27;;;;;;;;;;5030443;28;20399;-83
2022/06/19 13:39:35;;;;;;;13.17;5.17;;;;;;;;;;5045265;28;20374;-85
2022/06/19 13:42:14;;;;;;;11.68;4.90;;;;;;;;;;5055639;28;20397;-83
2022/06/19 13:44:59;;;;;;;11.55;5.30;;;;;;;;;;5055886;28;20449;-84
2022/06/19 13:47:37;;;;;;;12.68;5.15;;;;;;;;;;5056080;28;20374;-83
2022/06/19 13:50:03;;;;;;;13.03;5.07;;;;;;;;;;5055151;28;20419;-85
2022/06/19 13:52:29;;;;;;;13.43;5.07;;;;;;;;;;5055347;28;20384;-84
2022/06/19 13:54:59;;;;;;;10.60;5.57;;;;;;;;;;5048466;28;20375;-85
2022/06/19 13:57:36;;;;;;;15.52;5.63;;;;;;;;;;5054113;28;20409;-85
2022/06/19 14:00:21;;;;;;;13.55;5.50;;;;;;;;;;5043256;28;20383;-86
2022/06/19 14:03:02;;;;;;;13.40;5.50;;;;;;;;;;5039995;28;20746;-84
2022/06/19 14:05:31;;;;;;;13.95;5.20;;;;;;;;;;5054753;28;20378;-85
2022/06/19 14:08:07;;;;;;;12.05;4.80;;;;;;;;;;5055006;28;20417;-83
2022/06/19 14:10:42;;;;;;;15.02;5.30;;;;;;;;;;5054851;28;20373;-85
2022/06/19 14:13:20;;;;;;;13.60;5.67;;;;;;;;;;5026133;28;20897;-84
2022/06/19 14:15:54;;;;;;;8.60;4.80;;;;;;;;;;5023330;28;20405;-85
2022/06/19 14:18:26;;;;;;;14.90;5.07;;;;;;;;;;5034299;28;20764;-85
2022/06/19 14:20:56;;;;;;;10.20;4.55;;;;;;;;;;5024733;28;20443;-85
2022/06/19 14:23:30;;;;;;;12.43;5.27;;;;;;;;;;5026485;28;20443;-84
2022/06/19 14:26:09;;;;;;;12.40;5.03;;;;;;;;;;5030601;28;20456;-85
2022/06/19 14:28:58;;;;;;;15.25;5.10;;;;;;;;;;5024817;28;20495;-84
2022/06/19 14:31:25;;;;;;;15.63;5.60;;;;;;;;;;5006747;28;20412;-84
2022/06/19 14:33:53;;;;;;;14.00;4.90;;;;;;;;;;5030392;28;20409;-84
2022/06/19 14:36:19;;;;;;;14.80;5.13;;;;;;;;;;5026690;28;20443;-85
2022/06/19 14:38:49;;;;;;;13.88;5.20;;;;;;;;;;5021443;28;20416;-84
2022/06/19 14:41:27;;;;;;;13.65;4.97;;;;;;;;;;5018035;28;20384;-84
2022/06/19 14:43:56;;;;;;;11.40;5.10;;;;;;;;;;5022609;28;20401;-83
2022/06/19 14:46:41;;;;;;;12.25;4.85;;;;;;;;;;5024526;28;20426;-85
2022/06/19 14:49:07;;;;;;;9.73;4.73;;;;;;;;;;5030169;28;20432;-84
2022/06/19 14:51:34;;;;;;;12.98;5.20;;;;;;;;;;5030314;28;20417;-86
2022/06/19 14:54:05;;;;;;;12.45;5.10;;;;;;;;;;5024004;28;20422;-85
2022/06/19 14:56:31;;;;;;;10.52;5.00;;;;;;;;;;5021292;28;20448;-86
2022/06/19 14:58:58;;;;;;;15.70;5.40;;;;;;;;;;5047068;28;20382;-86
2022/06/19 15:01:34;;;;;;;12.90;4.93;;;;;;;;;;5086532;28;20349;-87
2022/06/19 15:04:06;;;;;;;10.82;5.03;;;;;;;;;;5090139;28;20409;-85